Time;durP1;ratioP1;P1;durP2;ratioP2;P2;SDS_P1;SDS_P2;PMS_P1;PMS_P2;Temp;Humidity;BMP_temperature;BMP_pressure;BME280_temperature;BME280_humidity;BME280_pressure;Samples;Min_cycle;Max_cycle;Signal;HPM_P1;HPM_P2
2022/10/29 00:00:53;;;;;;;11.05;4.03;;;20.40;53.40;;;;;;5003924;28;20065;-52
2022/10/29 00:03:21;;;;;;;17.52;4.00;;;20.40;53.40;;;;;;5005381;28;20498;-52
2022/10/29 00:05:55;;;;;;;10.45;4.10;;;20.40;53.50;;;;;;5004633;28;20054;-51
2022/10/29 00:08:23;;;;;;;11.15;4.30;;;20.40;53.50;;;;;;5003793;28;20060;-50
2022/10/29 00:10:50;;;;;;;12.07;4.55;;;20.40;53.50;;;;;;5003185;28;20117;-53
2022/10/29 00:13:17;;;;;;;13.40;4.32;;;20.40;53.60;;;;;;5003480;28;20042;-52
2022/10/29 00:15:46;;;;;;;12.73;4.18;;;20.30;53.60;;;;;;5004656;28;21438;-51
2022/10/29 00:18:13;;;;;;;13.63;4.85;;;20.30;53.60;;;;;;5004210;28;20065;-52
2022/10/29 00:20:40;;;;;;;10.13;3.60;;;20.30;53.60;;;;;;4999867;28;20053;-52
2022/10/29 00:23:07;;;;;;;10.00;4.05;;;20.30;53.70;;;;;;5003754;28;20050;-51
2022/10/29 00:25:35;;;;;;;11.65;4.00;;;20.30;53.70;;;;;;5002893;28;20054;-51
2022/10/29 00:28:02;;;;;;;14.40;4.25;;;20.30;53.80;;;;;;5004389;28;20054;-48
2022/10/29 00:30:29;;;;;;;12.98;4.50;;;20.30;53.90;;;;;;5002218;28;20421;-52
2022/10/29 00:32:58;;;;;;;15.00;4.60;;;20.20;53.80;;;;;;5003638;28;20054;-51
2022/10/29 00:35:25;;;;;;;10.57;3.85;;;20.20;53.90;;;;;;5005368;28;20971;-53
2022/10/29 00:37:52;;;;;;;13.23;5.07;;;20.20;53.90;;;;;;5003558;28;20058;-53
2022/10/29 00:40:20;;;;;;;10.68;4.50;;;20.20;53.90;;;;;;5001190;28;20062;-52
2022/10/29 00:42:47;;;;;;;13.80;4.57;;;20.20;53.90;;;;;;5003799;28;20058;-52
2022/10/29 00:45:21;;;;;;;11.45;4.22;;;20.10;53.90;;;;;;5005276;28;20068;-50
2022/10/29 00:47:52;;;;;;;11.10;4.35;;;20.10;54.00;;;;;;5004637;28;20053;-52
2022/10/29 00:50:23;;;;;;;13.32;3.90;;;20.10;54.50;;;;;;5002131;28;20065;-53
2022/10/29 00:52:51;;;;;;;10.65;4.05;;;20.10;54.00;;;;;;5004797;28;20058;-50
2022/10/29 00:55:20;;;;;;;13.50;4.32;;;20.00;54.00;;;;;;5006261;28;20069;-51
2022/10/29 00:57:51;;;;;;;11.35;4.32;;;20.10;54.10;;;;;;5007884;28;20433;-52
2022/10/29 01:00:19;;;;;;;13.95;4.63;;;20.10;54.10;;;;;;5007088;28;20734;-52
2022/10/29 01:02:47;;;;;;;13.85;3.88;;;20.00;54.10;;;;;;5007071;28;20054;-53
2022/10/29 01:05:19;;;;;;;12.65;4.05;;;20.00;54.20;;;;;;5007330;28;20057;-52
2022/10/29 01:07:48;;;;;;;9.18;3.92;;;20.00;54.30;;;;;;5006184;28;20132;-50
2022/10/29 01:10:18;;;;;;;8.80;4.00;;;20.00;54.30;;;;;;5005838;28;20089;-53
2022/10/29 01:13:16;;;;;;;13.57;4.07;;;20.00;54.30;;;;;;5007716;28;22098;-53
2022/10/29 01:15:54;;;;;;;9.38;4.18;;;19.90;54.40;;;;;;5004893;28;20065;-52
2022/10/29 01:18:28;;;;;;;12.90;4.28;;;19.90;54.30;;;;;;5005187;28;20052;-51
2022/10/29 01:21:44;;;;;;;13.10;4.53;;;19.90;54.40;;;;;;5006428;28;20049;-53
2022/10/29 01:24:51;;;;;;;11.02;4.07;;;19.90;54.50;;;;;;4968725;28;20062;-46
2022/10/29 01:27:48;;;;;;;12.27;4.60;;;19.90;54.60;;;;;;4995115;28;20060;-53
2022/10/29 01:30:21;;;;;;;14.88;5.20;;;19.90;54.60;;;;;;5005831;28;20076;-53
2022/10/29 01:33:04;;;;;;;9.57;4.82;;;19.90;54.60;;;;;;5005255;28;20394;-50
2022/10/29 01:35:40;;;;;;;15.15;4.90;;;19.80;54.70;;;;;;5006558;28;20085;-53
2022/10/29 01:38:19;;;;;;;13.23;4.45;;;19.80;54.70;;;;;;5001134;28;20513;-52
2022/10/29 01:40:53;;;;;;;15.50;4.60;;;19.80;54.60;;;;;;5004169;28;20057;-53
2022/10/29 01:43:26;;;;;;;22.20;5.65;;;19.80;54.70;;;;;;5007073;28;20054;-52
2022/10/29 01:45:59;;;;;;;11.15;4.47;;;19.80;54.80;;;;;;5007354;28;20402;-54
2022/10/29 01:48:32;;;;;;;14.13;4.47;;;19.70;54.70;;;;;;5007451;28;20123;-53
2022/10/29 01:51:04;;;;;;;14.02;4.40;;;19.70;54.70;;;;;;5004524;28;20529;-53
2022/10/29 01:53:34;;;;;;;9.23;4.40;;;19.70;54.80;;;;;;5001526;28;20572;-52
2022/10/29 01:56:02;;;;;;;10.50;4.28;;;19.70;54.80;;;;;;5004294;28;20054;-52
2022/10/29 01:58:29;;;;;;;15.48;4.78;;;19.70;54.80;;;;;;5006476;28;20049;-52
2022/10/29 02:01:06;;;;;;;13.82;4.38;;;19.60;54.90;;;;;;5004117;28;20058;-53
2022/10/29 02:03:43;;;;;;;9.20;4.82;;;19.60;55.00;;;;;;5006286;28;20057;-53
2022/10/29 02:06:20;;;;;;;9.40;4.57;;;19.60;55.00;;;;;;5007048;28;20057;-53
2022/10/29 02:08:56;;;;;;;14.98;4.65;;;19.60;55.10;;;;;;5002271;28;20521;-51
2022/10/29 02:11:26;;;;;;;14.80;4.65;;;19.60;55.20;;;;;;5005524;28;20061;-47
2022/10/29 02:13:58;;;;;;;10.73;4.18;;;19.60;55.20;;;;;;5004863;28;20490;-52
2022/10/29 02:16:26;;;;;;;13.32;4.50;;;19.60;55.20;;;;;;5006144;28;20069;-52
2022/10/29 02:18:56;;;;;;;19.10;4.75;;;19.50;55.20;;;;;;5004167;28;20061;-50
2022/10/29 02:21:24;;;;;;;13.85;5.28;;;19.50;55.30;;;;;;5003967;28;20053;-49
2022/10/29 02:23:51;;;;;;;22.38;5.75;;;19.50;55.30;;;;;;5005409;28;20406;-51
2022/10/29 02:26:20;;;;;;;15.80;4.68;;;19.50;55.30;;;;;;5006408;28;20466;-53
2022/10/29 02:28:47;;;;;;;14.23;4.90;;;19.50;55.40;;;;;;5004684;28;20521;-53
2022/10/29 02:31:15;;;;;;;9.93;4.43;;;19.40;55.40;;;;;;5005654;28;20050;-53
2022/10/29 02:33:42;;;;;;;13.15;4.50;;;19.40;55.40;;;;;;5002491;28;20465;-51
2022/10/29 02:36:10;;;;;;;13.30;5.20;;;19.40;55.50;;;;;;5004865;28;20050;-53
2022/10/29 02:38:38;;;;;;;12.07;4.75;;;19.40;55.50;;;;;;5004354;28;20054;-52
2022/10/29 02:41:05;;;;;;;12.68;4.85;;;19.40;55.50;;;;;;5004111;28;20053;-44
2022/10/29 02:43:32;;;;;;;9.10;4.22;;;19.40;55.50;;;;;;5001262;28;20525;-45
2022/10/29 02:46:13;;;;;;;13.20;4.90;;;19.40;55.60;;;;;;5003285;28;20049;-46
2022/10/29 02:48:40;;;;;;;11.15;4.47;;;19.40;55.70;;;;;;5004340;28;20402;-46
2022/10/29 02:51:08;;;;;;;10.35;4.07;;;19.40;55.70;;;;;;5004038;28;20482;-42
2022/10/29 02:53:37;;;;;;;12.88;5.15;;;19.30;55.60;;;;;;5002338;28;20061;-43
2022/10/29 02:56:05;;;;;;;17.45;5.53;;;19.30;55.70;;;;;;5004563;28;20068;-42
2022/10/29 02:58:32;;;;;;;15.60;4.97;;;19.30;55.70;;;;;;5003771;28;20065;-44
2022/10/29 03:01:00;;;;;;;10.20;4.43;;;19.30;55.70;;;;;;5004327;28;20061;-42
2022/10/29 03:03:28;;;;;;;9.35;4.15;;;19.30;55.70;;;;;;5003981;28;20379;-44
2022/10/29 03:05:55;;;;;;;9.35;4.20;;;19.30;55.70;;;;;;5003685;28;20054;-42
2022/10/29 03:08:22;;;;;;;10.57;4.68;;;19.30;55.80;;;;;;5002779;28;20444;-46
2022/10/29 03:10:51;;;;;;;13.52;4.97;;;19.30;55.80;;;;;;5003832;28;20053;-43
2022/10/29 03:13:18;;;;;;;15.35;4.82;;;19.20;55.80;;;;;;5003230;28;20049;-46
2022/10/29 03:15:46;;;;;;;11.68;5.22;;;19.20;55.80;;;;;;5003264;28;20057;-45
2022/10/29 03:18:13;;;;;;;9.00;4.40;;;19.20;55.80;;;;;;5003892;28;20533;-45
2022/10/29 03:20:40;;;;;;;12.48;4.57;;;19.20;55.80;;;;;;5004568;28;20054;-41
2022/10/29 03:23:07;;;;;;;17.10;5.38;;;19.20;55.80;;;;;;5003433;28;20046;-44
2022/10/29 03:25:34;;;;;;;9.57;4.88;;;19.10;55.80;;;;;;5003498;28;20085;-45
2022/10/29 03:28:03;;;;;;;11.35;5.20;;;19.10;55.80;;;;;;5003754;28;20068;-42
2022/10/29 03:30:30;;;;;;;14.55;4.85;;;19.10;55.80;;;;;;5003110;28;20509;-49
2022/10/29 03:32:58;;;;;;;12.93;4.78;;;19.10;55.80;;;;;;5002334;28;20060;-45
2022/10/29 03:35:25;;;;;;;14.52;4.57;;;19.10;55.80;;;;;;5002282;28;20057;-44
2022/10/29 03:37:53;;;;;;;19.92;5.78;;;19.00;55.80;;;;;;4999720;28;20506;-45
2022/10/29 03:40:20;;;;;;;14.40;5.00;;;19.00;55.90;;;;;;5002459;28;20486;-41
2022/10/29 03:42:47;;;;;;;15.15;4.57;;;19.00;55.90;;;;;;5003914;28;20057;-42
2022/10/29 03:45:16;;;;;;;22.13;5.55;;;18.90;55.90;;;;;;5001837;28;20054;-45
2022/10/29 03:47:43;;;;;;;15.15;5.30;;;19.00;56.00;;;;;;5003548;28;20085;-43
2022/10/29 03:50:11;;;;;;;8.80;4.30;;;18.90;56.00;;;;;;5004039;28;20064;-43
2022/10/29 03:52:38;;;;;;;13.18;5.45;;;18.90;56.00;;;;;;5001952;28;20079;-47
2022/10/29 03:55:06;;;;;;;14.73;5.15;;;18.80;56.00;;;;;;4999657;28;20054;-48
2022/10/29 03:57:34;;;;;;;12.30;5.70;;;18.90;56.10;;;;;;5001303;28;20417;-44
2022/10/29 04:00:03;;;;;;;13.15;4.50;;;18.80;56.10;;;;;;5001742;28;20069;-47
2022/10/29 04:02:32;;;;;;;15.75;4.60;;;18.80;56.10;;;;;;5001185;28;20060;-43
2022/10/29 04:04:59;;;;;;;14.18;5.05;;;18.80;56.20;;;;;;5002554;28;20493;-45
2022/10/29 04:07:26;;;;;;;14.23;6.85;;;18.80;56.20;;;;;;5001341;28;20053;-46
2022/10/29 04:09:53;;;;;;;24.67;11.05;;;18.70;56.30;;;;;;5000732;28;20058;-47
2022/10/29 04:12:21;;;;;;;17.38;8.10;;;18.70;56.30;;;;;;4999772;28;20058;-45
2022/10/29 04:14:48;;;;;;;14.73;5.13;;;18.70;56.30;;;;;;4996210;28;20046;-44
2022/10/29 04:17:15;;;;;;;13.77;5.40;;;18.70;56.40;;;;;;4994175;28;20054;-46
2022/10/29 04:19:44;;;;;;;7.82;4.70;;;18.70;56.50;;;;;;5000009;28;20405;-49
2022/10/29 04:22:11;;;;;;;11.80;4.80;;;18.60;56.50;;;;;;5000773;28;20057;-45
2022/10/29 04:24:38;;;;;;;17.75;5.95;;;18.70;56.60;;;;;;5002210;28;20061;-48
2022/10/29 04:27:05;;;;;;;12.57;5.05;;;18.60;56.50;;;;;;5006033;28;20072;-45
2022/10/29 04:29:32;;;;;;;19.58;5.35;;;18.60;56.60;;;;;;5007227;28;20054;-44
2022/10/29 04:32:00;;;;;;;18.25;5.50;;;18.60;56.60;;;;;;5002216;28;20065;-44
2022/10/29 04:34:27;;;;;;;11.80;5.05;;;18.60;56.70;;;;;;5006892;28;20053;-42
2022/10/29 04:36:55;;;;;;;15.65;5.57;;;18.60;56.70;;;;;;5004656;28;20057;-44
2022/10/29 04:39:23;;;;;;;12.10;4.85;;;18.60;56.70;;;;;;5003767;28;20410;-46
2022/10/29 04:41:50;;;;;;;10.38;5.10;;;18.60;56.70;;;;;;5005752;28;20054;-46
2022/10/29 04:44:17;;;;;;;12.70;5.50;;;18.60;56.80;;;;;;5006708;28;20054;-48
2022/10/29 04:46:44;;;;;;;12.32;5.28;;;18.60;56.90;;;;;;5004262;28;20054;-49
2022/10/29 04:49:11;;;;;;;14.90;5.20;;;18.60;57.40;;;;;;5006072;28;20062;-51
2022/10/29 04:51:39;;;;;;;13.68;5.78;;;18.60;56.90;;;;;;5007084;28;20046;-50
2022/10/29 04:54:07;;;;;;;13.52;4.90;;;18.60;57.00;;;;;;5005103;28;20068;-49
2022/10/29 04:56:35;;;;;;;34.47;14.15;;;18.60;57.00;;;;;;5006513;28;20066;-43
2022/10/29 04:59:02;;;;;;;37.55;16.38;;;18.50;56.90;;;;;;5006481;28;20058;-46
2022/10/29 05:01:30;;;;;;;22.45;10.68;;;18.50;57.00;;;;;;5005820;28;20133;-44
2022/10/29 05:03:57;;;;;;;13.38;6.80;;;18.50;57.00;;;;;;5005275;28;20533;-47
2022/10/29 05:06:24;;;;;;;11.13;5.68;;;18.50;57.00;;;;;;5003789;28;20054;-46
2022/10/29 05:08:51;;;;;;;14.70;5.65;;;18.50;57.10;;;;;;5004547;28;20050;-44
2022/10/29 05:11:20;;;;;;;12.15;5.65;;;18.60;57.10;;;;;;5004997;28;20053;-44
2022/10/29 05:13:47;;;;;;;15.55;5.53;;;18.50;57.60;;;;;;5003340;28;20349;-48
2022/10/29 05:16:14;;;;;;;17.35;6.00;;;18.50;57.10;;;;;;5004688;28;20504;-46
2022/10/29 05:18:42;;;;;;;18.15;5.38;;;18.50;57.10;;;;;;5005999;28;20057;-49
2022/10/29 05:21:09;;;;;;;9.85;4.82;;;18.50;57.10;;;;;;5001933;28;20505;-48
2022/10/29 05:23:36;;;;;;;12.48;5.07;;;18.50;57.10;;;;;;5005840;28;20061;-46
2022/10/29 05:26:04;;;;;;;14.45;5.30;;;18.50;57.10;;;;;;5005216;28;20050;-46
2022/10/29 05:28:32;;;;;;;14.85;5.68;;;18.50;57.20;;;;;;4958790;28;20065;-46
2022/10/29 05:31:01;;;;;;;13.15;5.25;;;18.50;57.70;;;;;;4986308;28;20057;-46
2022/10/29 05:33:28;;;;;;;29.30;11.23;;;18.50;57.20;;;;;;4986624;28;20508;-43
2022/10/29 05:35:55;;;;;;;26.90;11.70;;;18.50;57.20;;;;;;4985689;28;20065;-49
2022/10/29 05:38:23;;;;;;;17.08;7.47;;;18.50;57.20;;;;;;4986194;28;20065;-48
2022/10/29 05:40:50;;;;;;;16.33;6.28;;;18.50;57.20;;;;;;4983359;28;20058;-44
2022/10/29 05:43:17;;;;;;;15.43;5.13;;;18.50;57.20;;;;;;4983500;28;20053;-48
2022/10/29 05:45:46;;;;;;;14.57;5.20;;;18.50;57.30;;;;;;4979565;28;20046;-49
2022/10/29 05:48:13;;;;;;;20.30;6.53;;;18.50;57.30;;;;;;4983901;28;20065;-47
2022/10/29 05:50:40;;;;;;;11.05;5.20;;;18.50;57.30;;;;;;4982076;28;20073;-48
2022/10/29 05:53:10;;;;;;;14.27;5.22;;;18.40;57.30;;;;;;4983540;28;20058;-48
2022/10/29 05:55:38;;;;;;;13.35;5.30;;;18.40;57.30;;;;;;4984537;28;20505;-46
2022/10/29 05:58:06;;;;;;;15.93;4.78;;;18.50;57.40;;;;;;4980769;28;20058;-43
2022/10/29 06:00:37;;;;;;;13.60;5.18;;;18.40;57.40;;;;;;4975868;28;20434;-47
2022/10/29 06:03:11;;;;;;;18.85;6.50;;;18.40;57.40;;;;;;4971757;28;20482;-47
2022/10/29 06:05:39;;;;;;;12.52;4.72;;;18.40;57.60;;;;;;4972242;28;20077;-47
2022/10/29 06:08:06;;;;;;;15.43;4.80;;;18.40;57.50;;;;;;4991535;28;20050;-48
2022/10/29 06:10:34;;;;;;;11.13;4.93;;;18.40;57.60;;;;;;4988631;28;20622;-46
2022/10/29 06:13:01;;;;;;;14.00;4.65;;;18.40;57.70;;;;;;4993316;28;20054;-46
2022/10/29 06:15:28;;;;;;;13.65;5.82;;;18.40;57.70;;;;;;4998962;28;20065;-50
2022/10/29 06:17:55;;;;;;;12.65;4.85;;;18.40;57.70;;;;;;4986811;28;20069;-49
2022/10/29 06:20:24;;;;;;;11.10;4.50;;;18.50;57.80;;;;;;4990463;28;20057;-48
2022/10/29 06:22:57;;;;;;;12.55;4.50;;;18.40;57.80;;;;;;4986569;28;20058;-47
2022/10/29 06:25:24;;;;;;;14.23;5.07;;;18.50;57.80;;;;;;4984891;28;20046;-47
2022/10/29 06:27:59;;;;;;;16.20;5.15;;;18.50;57.70;;;;;;4988301;28;20049;-46
2022/10/29 06:30:27;;;;;;;15.32;5.53;;;18.40;57.70;;;;;;4988941;28;20058;-48
2022/10/29 06:32:55;;;;;;;14.48;4.68;;;18.50;57.70;;;;;;4995148;28;20413;-44
2022/10/29 06:35:24;;;;;;;11.40;5.00;;;18.50;57.70;;;;;;4989795;28;20065;-44
2022/10/29 06:37:51;;;;;;;12.32;5.00;;;18.50;57.70;;;;;;4980387;28;20066;-49
2022/10/29 06:40:19;;;;;;;15.75;4.80;;;18.50;57.60;;;;;;4984078;28;20410;-47
2022/10/29 06:42:46;;;;;;;15.15;5.05;;;18.50;57.60;;;;;;4987231;28;20084;-47
2022/10/29 06:45:14;;;;;;;15.75;5.60;;;18.50;57.60;;;;;;4995508;28;20042;-49
2022/10/29 06:47:42;;;;;;;16.00;5.93;;;18.50;57.70;;;;;;5002285;28;20066;-47
2022/10/29 06:50:11;;;;;;;13.82;5.65;;;18.50;57.70;;;;;;5000823;28;20057;-48
2022/10/29 06:52:39;;;;;;;16.85;4.97;;;18.50;57.70;;;;;;4998722;28;20504;-50
2022/10/29 06:55:08;;;;;;;13.00;5.43;;;18.50;57.70;;;;;;5002490;28;20352;-49
2022/10/29 06:57:36;;;;;;;14.50;4.50;;;18.50;57.70;;;;;;5002320;28;20049;-45
2022/10/29 07:00:04;;;;;;;12.85;5.18;;;18.50;57.70;;;;;;4999857;28;20129;-49
2022/10/29 07:02:31;;;;;;;15.93;4.93;;;18.60;57.80;;;;;;4994604;28;20065;-49
2022/10/29 07:04:58;;;;;;;16.02;5.15;;;18.50;57.80;;;;;;4991088;28;20057;-48
2022/10/29 07:07:28;;;;;;;28.95;5.53;;;18.60;57.80;;;;;;4990113;28;20061;-46
2022/10/29 07:09:57;;;;;;;16.80;4.88;;;18.60;57.90;;;;;;4995554;28;20054;-50
2022/10/29 07:12:24;;;;;;;16.02;5.15;;;18.60;57.90;;;;;;4991299;28;20069;-48
2022/10/29 07:14:51;;;;;;;17.67;4.97;;;18.60;57.90;;;;;;4999649;28;20057;-49
2022/10/29 07:17:18;;;;;;;14.40;4.72;;;18.60;57.90;;;;;;4989987;28;20057;-43
2022/10/29 07:19:45;;;;;;;13.32;4.47;;;18.60;57.90;;;;;;4993821;28;20050;-49
2022/10/29 07:22:13;;;;;;;13.35;4.50;;;18.60;58.00;;;;;;4984320;28;20054;-50
2022/10/29 07:24:40;;;;;;;11.73;4.43;;;18.60;58.00;;;;;;4988517;28;20527;-51
2022/10/29 07:27:09;;;;;;;8.70;4.57;;;18.60;58.00;;;;;;4992458;28;20109;-47
2022/10/29 07:29:36;;;;;;;8.90;4.28;;;18.70;58.10;;;;;;4985512;28;20061;-48
2022/10/29 07:32:03;;;;;;;14.20;4.05;;;18.70;58.00;;;;;;4985588;28;20058;-49
2022/10/29 07:34:30;;;;;;;11.15;3.92;;;18.70;58.10;;;;;;4996527;28;20057;-49
2022/10/29 07:36:58;;;;;;;8.57;4.07;;;18.70;58.10;;;;;;4991562;28;20058;-48
2022/10/29 07:39:25;;;;;;;22.20;5.25;;;18.70;58.10;;;;;;4988469;28;21462;-45
2022/10/29 07:41:52;;;;;;;13.27;4.97;;;18.80;58.20;;;;;;4986041;28;20058;-49
2022/10/29 07:44:21;;;;;;;9.73;4.40;;;18.80;58.20;;;;;;4990264;28;20042;-48
2022/10/29 07:46:48;;;;;;;16.33;4.63;;;18.80;58.20;;;;;;4996204;28;20425;-47
2022/10/29 07:49:15;;;;;;;20.80;4.78;;;18.90;58.20;;;;;;4998068;28;20069;-46
2022/10/29 07:51:42;;;;;;;15.35;5.00;;;18.90;58.20;;;;;;4999133;28;20061;-49
2022/10/29 07:54:09;;;;;;;16.70;4.60;;;18.90;58.20;;;;;;4998603;28;20619;-51
2022/10/29 07:56:37;;;;;;;38.35;17.27;;;18.90;58.10;;;;;;4991729;28;20050;-48
2022/10/29 07:59:04;;;;;;;35.05;16.30;;;19.00;58.10;;;;;;4995085;28;20058;-47
2022/10/29 08:01:32;;;;;;;27.75;13.82;;;19.00;58.10;;;;;;4995072;28;20489;-47
2022/10/29 08:04:00;;;;;;;15.65;6.50;;;19.00;58.00;;;;;;4997031;28;20498;-50
2022/10/29 08:06:27;;;;;;;12.15;4.53;;;19.00;58.00;;;;;;4998189;28;20669;-48
2022/10/29 08:08:54;;;;;;;16.00;5.40;;;19.00;58.00;;;;;;4997953;28;20050;-50
2022/10/29 08:11:22;;;;;;;10.32;4.72;;;19.10;58.00;;;;;;4993753;28;20049;-45
2022/10/29 08:13:49;;;;;;;12.05;4.80;;;19.10;57.90;;;;;;4992308;28;20054;-49
2022/10/29 08:16:16;;;;;;;13.57;4.97;;;19.10;57.90;;;;;;4993426;28;20054;-48
2022/10/29 08:18:45;;;;;;;13.73;4.97;;;19.20;57.90;;;;;;4991852;28;20054;-48
2022/10/29 08:21:12;;;;;;;23.15;5.05;;;19.20;57.80;;;;;;4985411;28;20136;-50
2022/10/29 08:23:39;;;;;;;12.77;5.03;;;19.10;57.80;;;;;;5001166;28;20054;-51
2022/10/29 08:26:06;;;;;;;11.25;4.90;;;19.20;57.80;;;;;;4998617;28;20061;-51
2022/10/29 08:28:33;;;;;;;12.45;4.43;;;19.20;57.80;;;;;;5001150;28;20065;-50
2022/10/29 08:31:01;;;;;;;14.15;4.70;;;19.20;57.70;;;;;;4998674;28;20414;-48
2022/10/29 08:33:28;;;;;;;9.20;4.28;;;19.30;57.80;;;;;;5002195;28;20054;-48
2022/10/29 08:35:56;;;;;;;15.57;4.72;;;19.30;57.70;;;;;;4989832;28;20061;-46
2022/10/29 08:38:24;;;;;;;13.00;5.32;;;19.30;57.70;;;;;;4980908;28;20054;-47
2022/10/29 08:41:06;;;;;;;13.20;4.95;;;19.30;57.70;;;;;;4982184;28;20634;-47
2022/10/29 08:43:55;;;;;;;16.45;5.18;;;19.30;57.80;;;;;;4989683;28;20080;-46
2022/10/29 08:46:33;;;;;;;13.32;4.43;;;19.30;57.80;;;;;;4991480;28;20042;-51
2022/10/29 08:49:05;;;;;;;13.13;5.03;;;19.30;57.80;;;;;;4992577;28;20422;-48
2022/10/29 08:51:37;;;;;;;15.45;5.15;;;19.40;57.80;;;;;;4990653;28;21100;-50
2022/10/29 08:54:04;;;;;;;12.77;4.47;;;19.40;57.70;;;;;;4991605;28;20058;-50
2022/10/29 08:56:35;;;;;;;13.93;5.28;;;19.40;58.20;;;;;;4988684;28;20560;-48
2022/10/29 08:59:08;;;;;;;19.50;4.75;;;19.50;57.80;;;;;;4989662;28;20054;-51
2022/10/29 09:01:36;;;;;;;10.38;4.18;;;19.40;57.70;;;;;;4991606;28;20670;-47
2022/10/29 09:04:11;;;;;;;12.27;4.22;;;19.40;57.70;;;;;;4989780;28;20062;-51
2022/10/29 09:06:45;;;;;;;18.30;6.05;;;19.50;57.70;;;;;;4990495;28;20057;-46
2022/10/29 09:09:27;;;;;;;15.32;5.40;;;19.50;57.80;;;;;;4989744;28;20101;-47
2022/10/29 09:12:12;;;;;;;15.90;4.93;;;19.50;57.70;;;;;;4994868;28;20050;-43
2022/10/29 09:14:53;;;;;;;13.95;5.10;;;19.60;57.80;;;;;;4999161;28;20060;-47
2022/10/29 09:17:28;;;;;;;14.43;5.10;;;19.60;57.70;;;;;;4999590;28;20457;-48
2022/10/29 09:20:08;;;;;;;12.00;4.88;;;19.60;57.60;;;;;;4989061;28;20059;-50
2022/10/29 09:22:44;;;;;;;14.73;4.60;;;19.60;57.50;;;;;;5000643;28;20410;-48
2022/10/29 09:25:17;;;;;;;18.13;5.32;;;19.60;57.50;;;;;;4988755;28;20061;-49
2022/10/29 09:27:59;;;;;;;17.10;5.45;;;19.70;57.50;;;;;;4988079;28;20485;-51
2022/10/29 09:30:30;;;;;;;18.42;5.18;;;19.70;57.50;;;;;;4993229;28;20053;-49
2022/10/29 09:33:03;;;;;;;15.18;4.97;;;19.70;57.40;;;;;;4995857;28;20060;-50
2022/10/29 09:35:38;;;;;;;12.93;5.57;;;19.70;57.30;;;;;;4993667;28;20060;-49
2022/10/29 09:38:16;;;;;;;17.33;4.75;;;19.80;57.30;;;;;;4993737;28;20049;-52
2022/10/29 09:40:44;;;;;;;14.57;4.80;;;19.80;57.40;;;;;;4992589;28;20057;-53
2022/10/29 09:43:32;;;;;;;22.55;5.10;;;19.80;57.40;;;;;;4990746;28;20061;-49
2022/10/29 09:46:16;;;;;;;13.35;4.88;;;19.80;57.50;;;;;;4993378;28;20100;-49
2022/10/29 09:48:51;;;;;;;12.40;4.55;;;19.80;57.50;;;;;;4988422;28;20540;-49
2022/10/29 09:51:30;;;;;;;26.67;5.28;;;19.90;57.50;;;;;;4988752;28;20054;-46
2022/10/29 09:53:58;;;;;;;15.77;4.95;;;19.90;57.50;;;;;;4989633;28;20066;-50
2022/10/29 09:56:26;;;;;;;13.10;4.38;;;20.00;57.70;;;;;;4995034;28;20374;-48
2022/10/29 09:58:57;;;;;;;13.82;4.88;;;20.00;57.60;;;;;;4989172;28;20615;-48
2022/10/29 10:01:24;;;;;;;11.88;4.60;;;20.00;57.50;;;;;;4989578;28;20057;-47
2022/10/29 10:03:59;;;;;;;15.95;4.80;;;20.00;57.50;;;;;;4988639;28;20502;-52
2022/10/29 10:06:26;;;;;;;15.43;4.75;;;20.10;57.40;;;;;;4987840;28;20414;-44
2022/10/29 10:09:05;;;;;;;20.25;5.20;;;20.10;57.40;;;;;;4984836;28;20648;-50
2022/10/29 10:11:38;;;;;;;15.25;4.57;;;20.20;57.40;;;;;;4987535;28;20406;-49
2022/10/29 10:14:14;;;;;;;10.32;4.43;;;20.20;57.20;;;;;;4995518;28;20057;-51
2022/10/29 10:16:41;;;;;;;15.05;4.60;;;20.30;57.20;;;;;;4987140;28;20494;-47
2022/10/29 10:19:22;;;;;;;21.00;5.70;;;20.30;57.10;;;;;;4984622;28;20060;-48
2022/10/29 10:21:57;;;;;;;14.95;4.93;;;20.30;57.00;;;;;;4980797;28;20465;-48
2022/10/29 10:24:31;;;;;;;16.50;5.05;;;20.40;57.00;;;;;;4986262;28;20068;-49
2022/10/29 10:26:58;;;;;;;16.48;4.90;;;20.40;56.90;;;;;;4985572;28;20058;-47
2022/10/29 10:29:26;;;;;;;18.02;4.70;;;20.40;56.80;;;;;;4982536;28;20069;-48
2022/10/29 10:32:13;;;;;;;14.65;4.32;;;20.50;56.80;;;;;;4985140;28;20089;-47
2022/10/29 10:34:41;;;;;;;13.50;4.45;;;20.50;56.70;;;;;;4987264;28;20046;-48
2022/10/29 10:37:21;;;;;;;9.52;4.35;;;20.50;56.60;;;;;;4989527;28;20065;-50
2022/10/29 10:39:52;;;;;;;16.30;5.03;;;20.60;56.60;;;;;;4997950;28;20053;-53
2022/10/29 10:42:25;;;;;;;18.08;4.97;;;20.60;56.50;;;;;;4996395;28;20053;-53
2022/10/29 10:44:59;;;;;;;18.52;4.80;;;20.60;56.40;;;;;;4990981;28;20502;-50
2022/10/29 10:47:29;;;;;;;11.50;4.50;;;20.70;56.50;;;;;;4982694;28;20050;-48
2022/10/29 10:50:10;;;;;;;15.82;4.78;;;20.70;56.40;;;;;;4983922;28;20561;-47
2022/10/29 10:52:38;;;;;;;14.77;4.38;;;20.70;56.40;;;;;;4989684;28;20054;-48
2022/10/29 10:55:15;;;;;;;13.73;5.05;;;20.70;56.30;;;;;;4984866;28;20062;-49
2022/10/29 10:57:48;;;;;;;14.35;4.43;;;20.80;56.20;;;;;;4983344;28;20065;-54
2022/10/29 11:00:18;;;;;;;13.65;4.55;;;20.80;56.20;;;;;;4984257;28;20498;-46
2022/10/29 11:02:51;;;;;;;14.02;4.72;;;20.80;56.10;;;;;;4987180;28;20061;-43
2022/10/29 11:05:20;;;;;;;16.45;4.65;;;20.90;56.00;;;;;;4986680;28;20068;-47
2022/10/29 11:18:53;;;;;;;13.65;4.63;;;21.00;56.00;;;;;;4994629;28;20047;-45
2022/10/29 11:21:25;;;;;;;11.98;4.55;;;21.00;56.20;;;;;;4990448;28;20577;-51
2022/10/29 11:23:59;;;;;;;24.00;4.93;;;21.10;56.10;;;;;;4981408;28;20058;-53
2022/10/29 11:26:29;;;;;;;;;;;21.10;56.00;;;;;;4978323;28;20058;-53
2022/10/29 11:29:03;;;;;;;13.23;4.65;;;21.10;56.00;;;;;;4979843;28;19940;-49
2022/10/29 11:31:39;;;;;;;11.50;4.10;;;21.20;56.00;;;;;;4991540;28;20061;-48
2022/10/29 11:34:12;;;;;;;15.13;5.22;;;21.20;55.90;;;;;;4991650;28;20524;-51
2022/10/29 11:36:43;;;;;;;13.35;4.30;;;21.20;55.80;;;;;;4986920;28;20056;-50
2022/10/29 11:39:17;;;;;;;14.38;4.70;;;21.20;55.80;;;;;;4985698;28;20494;-46
2022/10/29 11:41:46;;;;;;;;;;;21.20;55.70;;;;;;4990276;28;20066;-47
2022/10/29 11:44:16;;;;;;;11.60;4.78;;;21.30;55.80;;;;;;4987397;28;19937;-53
2022/10/29 11:46:59;;;;;;;10.27;4.55;;;21.30;55.60;;;;;;4990416;28;20061;-49
2022/10/29 11:49:47;;;;;;;12.35;4.07;;;21.30;55.50;;;;;;4986430;28;20781;-54
2022/10/29 11:52:18;;;;;;;12.75;4.18;;;21.30;55.50;;;;;;4987584;28;20081;-52
2022/10/29 11:54:59;;;;;;;13.00;4.38;;;21.30;55.50;;;;;;4998977;28;20054;-46
2022/10/29 11:57:33;;;;;;;14.30;4.72;;;21.40;55.50;;;;;;5003672;28;20061;-48
2022/10/29 12:00:11;;;;;;;11.05;4.60;;;21.30;55.40;;;;;;5002842;28;20060;-50
2022/10/29 12:03:03;;;;;;;16.00;4.68;;;21.40;55.30;;;;;;5000455;28;20054;-48
2022/10/29 12:05:40;;;;;;;12.60;4.82;;;21.40;55.30;;;;;;4997547;28;20053;-49
2022/10/29 12:08:19;;;;;;;14.35;4.88;;;21.40;55.10;;;;;;4996493;28;20058;-48
2022/10/29 12:10:50;;;;;;;11.63;4.28;;;21.50;55.10;;;;;;4997664;28;20053;-49
2022/10/29 12:13:28;;;;;;;8.45;4.30;;;21.50;55.00;;;;;;5001065;28;20065;-48
2022/10/29 12:16:10;;;;;;;23.15;6.22;;;21.50;55.00;;;;;;5001825;28;20050;-48
2022/10/29 12:18:45;;;;;;;14.13;4.63;;;21.50;55.00;;;;;;5000726;28;20050;-51
2022/10/29 12:21:21;;;;;;;15.32;4.70;;;21.50;55.10;;;;;;5001656;28;20061;-51
2022/10/29 12:24:02;;;;;;;12.38;4.88;;;21.50;55.00;;;;;;4999614;28;20061;-47
2022/10/29 12:26:34;;;;;;;14.68;4.47;;;21.60;55.10;;;;;;5002739;28;20065;-49
2022/10/29 12:29:11;;;;;;;18.25;4.80;;;21.60;55.10;;;;;;5003327;28;20452;-47
2022/10/29 12:31:45;;;;;;;14.98;4.53;;;21.60;55.00;;;;;;5001316;28;20054;-55
2022/10/29 12:34:22;;;;;;;12.88;4.85;;;21.60;55.00;;;;;;5002320;28;20061;-47
2022/10/29 12:36:59;;;;;;;13.27;4.57;;;21.70;54.90;;;;;;5003089;28;20069;-47
2022/10/29 12:39:31;;;;;;;9.90;4.28;;;21.70;54.90;;;;;;5001396;28;20410;-50
2022/10/29 12:42:01;;;;;;;10.48;4.13;;;21.70;54.80;;;;;;4999890;28;20129;-47
2022/10/29 12:44:37;;;;;;;16.25;4.97;;;21.80;54.80;;;;;;5002457;28;20069;-48
2022/10/29 12:47:11;;;;;;;13.70;4.93;;;21.80;54.70;;;;;;5006139;28;20066;-50
2022/10/29 12:49:52;;;;;;;15.80;4.32;;;21.80;54.60;;;;;;5006813;28;20053;-50
2022/10/29 12:52:30;;;;;;;11.13;3.83;;;21.80;54.70;;;;;;5004563;28;20046;-52
2022/10/29 12:54:59;;;;;;;10.98;4.22;;;21.80;54.50;;;;;;5004957;28;20049;-48
2022/10/29 12:57:34;;;;;;;11.90;4.03;;;21.90;54.50;;;;;;5006265;28;20494;-45
2022/10/29 13:00:43;;;;;;;11.35;3.97;;;21.90;54.30;;;;;;5004546;28;20053;-52
2022/10/29 13:03:10;;;;;;;10.15;4.30;;;21.90;54.30;;;;;;5005349;28;20069;-48
2022/10/29 13:05:42;;;;;;;13.88;5.03;;;21.90;54.30;;;;;;5005852;28;20501;-48
2022/10/29 13:08:32;;;;;;;17.38;4.22;;;22.00;54.20;;;;;;5005572;28;20046;-50